sensor_id;sensor_type;location;lat;lon;timestamp;P1;durP1;ratioP1;P2;durP2;ratioP2
76576;SDS011;65441;44.748;37.600;2024-01-15T00:00:29;2.45;;;0.57;;
76576;SDS011;65441;44.748;37.600;2024-01-15T00:02:57;2.17;;;0.60;;
76576;SDS011;65441;44.748;37.600;2024-01-15T00:05:26;3.28;;;0.68;;
76576;SDS011;65441;44.748;37.600;2024-01-15T00:07:54;1.33;;;0.45;;
76576;SDS011;65441;44.748;37.600;2024-01-15T00:10:24;2.03;;;0.70;;
76576;SDS011;65441;44.748;37.600;2024-01-15T00:15:54;2.28;;;0.70;;
76576;SDS011;65441;44.748;37.600;2024-01-15T00:18:23;4.60;;;1.17;;
76576;SDS011;65441;44.748;37.600;2024-01-15T00:20:51;1.10;;;0.40;;
76576;SDS011;65441;44.748;37.600;2024-01-15T00:23:19;3.22;;;0.93;;
76576;SDS011;65441;44.748;37.600;2024-01-15T00:25:50;5.25;;;0.85;;
76576;SDS011;65441;44.748;37.600;2024-01-15T00:28:18;2.35;;;0.90;;
76576;SDS011;65441;44.748;37.600;2024-01-15T00:30:47;5.07;;;1.33;;
76576;SDS011;65441;44.748;37.600;2024-01-15T00:33:15;4.38;;;0.77;;
76576;SDS011;65441;44.748;37.600;2024-01-15T00:35:43;2.15;;;0.68;;
76576;SDS011;65441;44.748;37.600;2024-01-15T00:38:11;3.45;;;0.70;;
76576;SDS011;65441;44.748;37.600;2024-01-15T00:40:39;1.83;;;0.50;;
76576;SDS011;65441;44.748;37.600;2024-01-15T00:43:09;6.20;;;1.05;;
76576;SDS011;65441;44.748;37.600;2024-01-15T00:45:54;1.55;;;0.55;;
76576;SDS011;65441;44.748;37.600;2024-01-15T00:48:22;1.27;;;0.52;;
76576;SDS011;65441;44.748;37.600;2024-01-15T00:50:50;1.58;;;0.43;;
76576;SDS011;65441;44.748;37.600;2024-01-15T00:53:20;2.80;;;0.82;;
76576;SDS011;65441;44.748;37.600;2024-01-15T00:55:49;2.67;;;0.70;;
76576;SDS011;65441;44.748;37.600;2024-01-15T00:58:18;7.97;;;1.38;;
76576;SDS011;65441;44.748;37.600;2024-01-15T01:00:47;5.00;;;0.82;;
76576;SDS011;65441;44.748;37.600;2024-01-15T01:03:15;1.83;;;0.77;;
76576;SDS011;65441;44.748;37.600;2024-01-15T01:05:43;6.18;;;1.00;;
76576;SDS011;65441;44.748;37.600;2024-01-15T01:08:12;1.83;;;0.60;;
76576;SDS011;65441;44.748;37.600;2024-01-15T01:10:40;0.88;;;0.47;;
76576;SDS011;65441;44.748;37.600;2024-01-15T01:13:08;0.82;;;0.40;;
76576;SDS011;65441;44.748;37.600;2024-01-15T01:15:38;1.13;;;0.38;;
76576;SDS011;65441;44.748;37.600;2024-01-15T01:18:06;1.38;;;0.50;;
76576;SDS011;65441;44.748;37.600;2024-01-15T01:20:34;1.70;;;0.57;;
76576;SDS011;65441;44.748;37.600;2024-01-15T01:23:02;3.92;;;1.00;;
76576;SDS011;65441;44.748;37.600;2024-01-15T01:25:31;1.85;;;0.55;;
76576;SDS011;65441;44.748;37.600;2024-01-15T01:27:59;1.25;;;0.43;;
76576;SDS011;65441;44.748;37.600;2024-01-15T01:30:27;1.27;;;0.28;;
76576;SDS011;65441;44.748;37.600;2024-01-15T01:32:56;1.52;;;0.50;;
76576;SDS011;65441;44.748;37.600;2024-01-15T01:35:25;3.17;;;0.32;;
76576;SDS011;65441;44.748;37.600;2024-01-15T01:37:53;2.47;;;0.68;;
76576;SDS011;65441;44.748;37.600;2024-01-15T01:40:21;2.45;;;0.45;;
76576;SDS011;65441;44.748;37.600;2024-01-15T01:42:50;1.17;;;0.40;;
76576;SDS011;65441;44.748;37.600;2024-01-15T01:45:35;1.35;;;0.43;;
76576;SDS011;65441;44.748;37.600;2024-01-15T01:48:23;1.75;;;0.70;;
76576;SDS011;65441;44.748;37.600;2024-01-15T01:50:52;0.57;;;0.30;;
76576;SDS011;65441;44.748;37.600;2024-01-15T01:53:22;3.63;;;0.63;;
76576;SDS011;65441;44.748;37.600;2024-01-15T01:55:51;0.85;;;0.40;;
76576;SDS011;65441;44.748;37.600;2024-01-15T01:58:19;7.03;;;1.20;;
76576;SDS011;65441;44.748;37.600;2024-01-15T02:00:48;1.85;;;0.70;;
76576;SDS011;65441;44.748;37.600;2024-01-15T02:03:16;2.97;;;0.50;;
76576;SDS011;65441;44.748;37.600;2024-01-15T02:05:46;2.47;;;0.57;;
76576;SDS011;65441;44.748;37.600;2024-01-15T02:08:16;3.10;;;0.70;;
76576;SDS011;65441;44.748;37.600;2024-01-15T02:10:44;1.48;;;0.90;;
76576;SDS011;65441;44.748;37.600;2024-01-15T02:13:12;1.33;;;0.52;;
76576;SDS011;65441;44.748;37.600;2024-01-15T02:15:41;3.22;;;0.82;;
76576;SDS011;65441;44.748;37.600;2024-01-15T02:18:09;1.83;;;0.63;;
76576;SDS011;65441;44.748;37.600;2024-01-15T02:20:37;2.60;;;0.70;;
76576;SDS011;65441;44.748;37.600;2024-01-15T02:25:53;2.78;;;0.77;;
76576;SDS011;65441;44.748;37.600;2024-01-15T02:28:22;2.72;;;0.88;;
76576;SDS011;65441;44.748;37.600;2024-01-15T02:30:50;1.90;;;0.80;;
76576;SDS011;65441;44.748;37.600;2024-01-15T02:33:18;2.13;;;0.60;;
76576;SDS011;65441;44.748;37.600;2024-01-15T02:35:47;3.35;;;0.75;;
76576;SDS011;65441;44.748;37.600;2024-01-15T02:38:16;2.00;;;0.47;;
76576;SDS011;65441;44.748;37.600;2024-01-15T02:40:47;3.67;;;0.82;;
76576;SDS011;65441;44.748;37.600;2024-01-15T02:43:15;2.83;;;1.00;;
76576;SDS011;65441;44.748;37.600;2024-01-15T02:45:45;3.45;;;1.02;;
76576;SDS011;65441;44.748;37.600;2024-01-15T02:48:13;1.10;;;0.45;;
76576;SDS011;65441;44.748;37.600;2024-01-15T02:50:41;1.75;;;0.60;;
76576;SDS011;65441;44.748;37.600;2024-01-15T02:53:09;3.72;;;0.70;;
76576;SDS011;65441;44.748;37.600;2024-01-15T02:55:38;3.75;;;0.63;;
76576;SDS011;65441;44.748;37.600;2024-01-15T02:58:07;2.75;;;0.70;;
76576;SDS011;65441;44.748;37.600;2024-01-15T03:00:35;2.70;;;0.80;;
76576;SDS011;65441;44.748;37.600;2024-01-15T03:03:21;3.03;;;0.75;;
76576;SDS011;65441;44.748;37.600;2024-01-15T03:05:50;3.75;;;1.42;;
76576;SDS011;65441;44.748;37.600;2024-01-15T03:08:18;1.08;;;0.47;;
76576;SDS011;65441;44.748;37.600;2024-01-15T03:10:46;3.95;;;0.73;;
76576;SDS011;65441;44.748;37.600;2024-01-15T03:13:16;2.80;;;0.88;;
76576;SDS011;65441;44.748;37.600;2024-01-15T03:15:45;3.50;;;1.15;;
76576;SDS011;65441;44.748;37.600;2024-01-15T03:18:13;3.03;;;0.82;;
76576;SDS011;65441;44.748;37.600;2024-01-15T03:20:41;4.25;;;1.38;;
76576;SDS011;65441;44.748;37.600;2024-01-15T03:23:09;4.30;;;1.23;;
76576;SDS011;65441;44.748;37.600;2024-01-15T03:25:37;3.85;;;1.23;;
76576;SDS011;65441;44.748;37.600;2024-01-15T03:28:25;2.80;;;0.90;;
76576;SDS011;65441;44.748;37.600;2024-01-15T03:30:53;6.78;;;1.92;;
76576;SDS011;65441;44.748;37.600;2024-01-15T03:33:22;3.47;;;1.10;;
76576;SDS011;65441;44.748;37.600;2024-01-15T03:35:50;1.85;;;0.82;;
76576;SDS011;65441;44.748;37.600;2024-01-15T03:38:18;3.75;;;0.90;;
76576;SDS011;65441;44.748;37.600;2024-01-15T03:40:51;2.45;;;0.82;;
76576;SDS011;65441;44.748;37.600;2024-01-15T03:43:19;3.35;;;0.90;;
76576;SDS011;65441;44.748;37.600;2024-01-15T03:45:49;6.75;;;1.38;;
76576;SDS011;65441;44.748;37.600;2024-01-15T03:48:17;5.00;;;1.25;;
76576;SDS011;65441;44.748;37.600;2024-01-15T03:50:46;3.40;;;1.15;;
76576;SDS011;65441;44.748;37.600;2024-01-15T03:53:14;2.88;;;1.38;;
76576;SDS011;65441;44.748;37.600;2024-01-15T03:55:42;6.95;;;0.93;;
76576;SDS011;65441;44.748;37.600;2024-01-15T03:58:10;4.85;;;1.20;;
76576;SDS011;65441;44.748;37.600;2024-01-15T04:00:41;3.90;;;1.50;;
76576;SDS011;65441;44.748;37.600;2024-01-15T04:03:11;6.03;;;1.40;;
76576;SDS011;65441;44.748;37.600;2024-01-15T04:08:25;2.10;;;0.85;;
76576;SDS011;65441;44.748;37.600;2024-01-15T04:10:53;7.35;;;0.80;;
76576;SDS011;65441;44.748;37.600;2024-01-15T04:13:22;1.35;;;0.75;;
76576;SDS011;65441;44.748;37.600;2024-01-15T04:15:50;2.67;;;1.00;;
76576;SDS011;65441;44.748;37.600;2024-01-15T04:18:20;5.43;;;1.52;;
76576;SDS011;65441;44.748;37.600;2024-01-15T04:20:48;2.22;;;0.75;;
76576;SDS011;65441;44.748;37.600;2024-01-15T04:26:03;4.00;;;0.98;;
76576;SDS011;65441;44.748;37.600;2024-01-15T04:28:31;4.50;;;1.38;;
76576;SDS011;65441;44.748;37.600;2024-01-15T04:31:00;2.40;;;0.95;;
76576;SDS011;65441;44.748;37.600;2024-01-15T04:33:29;2.65;;;0.93;;
76576;SDS011;65441;44.748;37.600;2024-01-15T04:36:01;7.22;;;1.77;;
76576;SDS011;65441;44.748;37.600;2024-01-15T04:38:30;4.50;;;1.23;;
76576;SDS011;65441;44.748;37.600;2024-01-15T04:40:59;4.05;;;1.23;;
76576;SDS011;65441;44.748;37.600;2024-01-15T04:43:44;2.10;;;0.75;;
76576;SDS011;65441;44.748;37.600;2024-01-15T04:49:00;6.07;;;2.13;;
76576;SDS011;65441;44.748;37.600;2024-01-15T04:51:28;12.63;;;2.33;;
76576;SDS011;65441;44.748;37.600;2024-01-15T04:53:57;4.82;;;2.05;;
76576;SDS011;65441;44.748;37.600;2024-01-15T04:56:25;5.15;;;1.65;;
76576;SDS011;65441;44.748;37.600;2024-01-15T04:58:53;5.18;;;1.13;;
76576;SDS011;65441;44.748;37.600;2024-01-15T05:01:22;9.80;;;1.88;;
76576;SDS011;65441;44.748;37.600;2024-01-15T05:04:10;5.70;;;2.10;;
76576;SDS011;65441;44.748;37.600;2024-01-15T05:06:38;6.53;;;1.70;;
76576;SDS011;65441;44.748;37.600;2024-01-15T05:09:06;4.03;;;1.17;;
76576;SDS011;65441;44.748;37.600;2024-01-15T05:11:34;7.03;;;1.50;;
76576;SDS011;65441;44.748;37.600;2024-01-15T05:14:02;9.82;;;2.03;;
76576;SDS011;65441;44.748;37.600;2024-01-15T05:16:31;6.07;;;1.88;;
76576;SDS011;65441;44.748;37.600;2024-01-15T05:18:59;7.72;;;2.40;;
76576;SDS011;65441;44.748;37.600;2024-01-15T05:21:29;7.15;;;2.20;;
76576;SDS011;65441;44.748;37.600;2024-01-15T05:23:57;6.70;;;2.00;;
76576;SDS011;65441;44.748;37.600;2024-01-15T05:26:25;6.50;;;2.38;;
76576;SDS011;65441;44.748;37.600;2024-01-15T05:29:10;11.20;;;2.17;;
76576;SDS011;65441;44.748;37.600;2024-01-15T05:31:39;6.57;;;2.10;;
76576;SDS011;65441;44.748;37.600;2024-01-15T05:34:07;9.50;;;2.33;;
76576;SDS011;65441;44.748;37.600;2024-01-15T05:36:37;7.60;;;2.40;;
76576;SDS011;65441;44.748;37.600;2024-01-15T05:39:05;7.47;;;2.05;;
76576;SDS011;65441;44.748;37.600;2024-01-15T05:44:20;5.68;;;2.15;;
76576;SDS011;65441;44.748;37.600;2024-01-15T05:46:49;4.97;;;1.30;;
76576;SDS011;65441;44.748;37.600;2024-01-15T05:49:17;4.68;;;2.03;;
76576;SDS011;65441;44.748;37.600;2024-01-15T05:51:47;6.18;;;1.80;;
76576;SDS011;65441;44.748;37.600;2024-01-15T05:54:15;11.65;;;2.10;;
76576;SDS011;65441;44.748;37.600;2024-01-15T05:56:44;7.72;;;2.25;;
76576;SDS011;65441;44.748;37.600;2024-01-15T05:59:13;7.75;;;1.92;;
76576;SDS011;65441;44.748;37.600;2024-01-15T06:01:41;7.72;;;2.17;;
76576;SDS011;65441;44.748;37.600;2024-01-15T06:04:10;4.00;;;1.27;;
76576;SDS011;65441;44.748;37.600;2024-01-15T06:06:38;7.07;;;1.60;;
76576;SDS011;65441;44.748;37.600;2024-01-15T06:09:09;6.47;;;1.60;;
76576;SDS011;65441;44.748;37.600;2024-01-15T06:11:37;6.18;;;1.70;;
76576;SDS011;65441;44.748;37.600;2024-01-15T06:14:06;7.45;;;2.03;;
76576;SDS011;65441;44.748;37.600;2024-01-15T06:16:34;12.13;;;1.95;;
76576;SDS011;65441;44.748;37.600;2024-01-15T06:19:02;8.75;;;1.98;;
76576;SDS011;65441;44.748;37.600;2024-01-15T06:21:31;7.78;;;1.98;;
76576;SDS011;65441;44.748;37.600;2024-01-15T06:24:00;6.20;;;1.90;;
76576;SDS011;65441;44.748;37.600;2024-01-15T06:26:47;7.05;;;1.38;;
76576;SDS011;65441;44.748;37.600;2024-01-15T06:29:15;2.85;;;0.90;;
76576;SDS011;65441;44.748;37.600;2024-01-15T06:31:44;3.67;;;1.33;;
76576;SDS011;65441;44.748;37.600;2024-01-15T06:34:12;7.28;;;1.08;;
76576;SDS011;65441;44.748;37.600;2024-01-15T06:36:41;4.00;;;1.00;;
76576;SDS011;65441;44.748;37.600;2024-01-15T06:39:09;1.90;;;0.70;;
76576;SDS011;65441;44.748;37.600;2024-01-15T06:41:57;4.93;;;1.00;;
76576;SDS011;65441;44.748;37.600;2024-01-15T06:44:43;2.88;;;0.90;;
76576;SDS011;65441;44.748;37.600;2024-01-15T06:47:11;6.47;;;1.45;;
76576;SDS011;65441;44.748;37.600;2024-01-15T06:49:40;7.13;;;1.50;;
76576;SDS011;65441;44.748;37.600;2024-01-15T06:52:08;6.68;;;1.90;;
76576;SDS011;65441;44.748;37.600;2024-01-15T06:54:39;6.30;;;1.27;;
76576;SDS011;65441;44.748;37.600;2024-01-15T06:57:08;4.88;;;0.93;;
76576;SDS011;65441;44.748;37.600;2024-01-15T06:59:36;2.38;;;0.80;;
76576;SDS011;65441;44.748;37.600;2024-01-15T07:02:05;8.45;;;1.65;;
76576;SDS011;65441;44.748;37.600;2024-01-15T07:04:33;5.53;;;2.13;;
76576;SDS011;65441;44.748;37.600;2024-01-15T07:07:01;8.40;;;1.98;;
76576;SDS011;65441;44.748;37.600;2024-01-15T07:09:52;5.07;;;1.60;;
76576;SDS011;65441;44.748;37.600;2024-01-15T07:12:22;4.70;;;1.27;;
76576;SDS011;65441;44.748;37.600;2024-01-15T07:14:50;11.45;;;2.72;;
76576;SDS011;65441;44.748;37.600;2024-01-15T07:17:18;7.00;;;1.85;;
76576;SDS011;65441;44.748;37.600;2024-01-15T07:19:47;6.07;;;1.90;;
76576;SDS011;65441;44.748;37.600;2024-01-15T07:22:15;6.80;;;2.42;;
76576;SDS011;65441;44.748;37.600;2024-01-15T07:27:32;8.50;;;2.35;;
76576;SDS011;65441;44.748;37.600;2024-01-15T07:30:00;2.53;;;1.00;;
76576;SDS011;65441;44.748;37.600;2024-01-15T07:32:31;14.90;;;3.28;;
76576;SDS011;65441;44.748;37.600;2024-01-15T07:35:00;11.65;;;2.40;;
76576;SDS011;65441;44.748;37.600;2024-01-15T07:37:29;6.85;;;1.70;;
76576;SDS011;65441;44.748;37.600;2024-01-15T07:39:57;6.57;;;2.33;;
76576;SDS011;65441;44.748;37.600;2024-01-15T07:42:32;3.72;;;1.17;;
76576;SDS011;65441;44.748;37.600;2024-01-15T07:45:00;7.88;;;1.77;;
76576;SDS011;65441;44.748;37.600;2024-01-15T07:47:28;7.65;;;2.40;;
76576;SDS011;65441;44.748;37.600;2024-01-15T07:49:57;6.43;;;1.77;;
76576;SDS011;65441;44.748;37.600;2024-01-15T07:52:25;5.60;;;2.03;;
76576;SDS011;65441;44.748;37.600;2024-01-15T07:54:53;6.22;;;1.70;;
76576;SDS011;65441;44.748;37.600;2024-01-15T07:57:22;7.40;;;1.80;;
76576;SDS011;65441;44.748;37.600;2024-01-15T07:59:52;7.65;;;1.77;;
76576;SDS011;65441;44.748;37.600;2024-01-15T08:02:20;5.70;;;1.73;;
76576;SDS011;65441;44.748;37.600;2024-01-15T08:04:49;8.95;;;2.85;;
76576;SDS011;65441;44.748;37.600;2024-01-15T08:07:17;5.80;;;1.90;;
76576;SDS011;65441;44.748;37.600;2024-01-15T08:10:03;5.63;;;1.70;;
76576;SDS011;65441;44.748;37.600;2024-01-15T08:12:32;8.70;;;2.00;;
76576;SDS011;65441;44.748;37.600;2024-01-15T08:15:05;4.85;;;2.25;;
76576;SDS011;65441;44.748;37.600;2024-01-15T08:17:34;5.18;;;2.42;;
76576;SDS011;65441;44.748;37.600;2024-01-15T08:20:21;10.02;;;2.45;;
76576;SDS011;65441;44.748;37.600;2024-01-15T08:28:04;4.80;;;1.80;;
76576;SDS011;65441;44.748;37.600;2024-01-15T08:30:35;6.30;;;2.05;;
76576;SDS011;65441;44.748;37.600;2024-01-15T08:33:04;3.90;;;1.63;;
76576;SDS011;65441;44.748;37.600;2024-01-15T08:35:32;5.40;;;1.67;;
76576;SDS011;65441;44.748;37.600;2024-01-15T08:38:01;3.83;;;1.50;;
76576;SDS011;65441;44.748;37.600;2024-01-15T08:40:30;10.85;;;2.60;;
76576;SDS011;65441;44.748;37.600;2024-01-15T08:42:58;5.07;;;1.67;;
76576;SDS011;65441;44.748;37.600;2024-01-15T08:45:28;8.00;;;2.38;;
76576;SDS011;65441;44.748;37.600;2024-01-15T08:47:57;3.10;;;0.98;;
76576;SDS011;65441;44.748;37.600;2024-01-15T08:50:27;7.07;;;2.38;;
76576;SDS011;65441;44.748;37.600;2024-01-15T08:52:55;6.80;;;1.67;;
76576;SDS011;65441;44.748;37.600;2024-01-15T08:55:23;9.63;;;2.80;;
76576;SDS011;65441;44.748;37.600;2024-01-15T08:57:52;8.93;;;1.80;;
76576;SDS011;65441;44.748;37.600;2024-01-15T09:00:20;7.32;;;1.85;;
76576;SDS011;65441;44.748;37.600;2024-01-15T09:02:48;5.55;;;1.88;;
76576;SDS011;65441;44.748;37.600;2024-01-15T09:05:18;8.05;;;2.75;;
76576;SDS011;65441;44.748;37.600;2024-01-15T09:07:47;9.60;;;2.30;;
76576;SDS011;65441;44.748;37.600;2024-01-15T09:10:18;7.35;;;1.73;;
76576;SDS011;65441;44.748;37.600;2024-01-15T09:12:46;9.52;;;2.17;;
76576;SDS011;65441;44.748;37.600;2024-01-15T09:15:15;5.32;;;1.88;;
76576;SDS011;65441;44.748;37.600;2024-01-15T09:18:03;10.65;;;2.47;;
76576;SDS011;65441;44.748;37.600;2024-01-15T09:20:33;8.55;;;2.10;;
76576;SDS011;65441;44.748;37.600;2024-01-15T09:23:02;6.53;;;1.85;;
76576;SDS011;65441;44.748;37.600;2024-01-15T09:25:30;11.50;;;2.28;;
76576;SDS011;65441;44.748;37.600;2024-01-15T09:27:58;6.47;;;2.45;;
76576;SDS011;65441;44.748;37.600;2024-01-15T09:30:26;8.20;;;1.88;;
76576;SDS011;65441;44.748;37.600;2024-01-15T09:32:55;4.45;;;1.38;;
76576;SDS011;65441;44.748;37.600;2024-01-15T09:35:23;9.65;;;1.88;;
76576;SDS011;65441;44.748;37.600;2024-01-15T09:37:53;8.02;;;1.75;;
76576;SDS011;65441;44.748;37.600;2024-01-15T09:40:21;11.10;;;2.60;;
76576;SDS011;65441;44.748;37.600;2024-01-15T09:43:09;4.03;;;1.42;;
76576;SDS011;65441;44.748;37.600;2024-01-15T09:45:38;9.95;;;2.72;;
76576;SDS011;65441;44.748;37.600;2024-01-15T09:48:07;11.60;;;2.78;;
76576;SDS011;65441;44.748;37.600;2024-01-15T09:50:35;6.45;;;1.92;;
76576;SDS011;65441;44.748;37.600;2024-01-15T09:53:05;3.70;;;1.33;;
76576;SDS011;65441;44.748;37.600;2024-01-15T09:55:33;12.48;;;1.60;;
76576;SDS011;65441;44.748;37.600;2024-01-15T09:58:03;3.88;;;1.50;;
76576;SDS011;65441;44.748;37.600;2024-01-15T10:00:32;4.00;;;1.35;;
76576;SDS011;65441;44.748;37.600;2024-01-15T10:03:03;4.82;;;1.60;;
76576;SDS011;65441;44.748;37.600;2024-01-15T10:05:32;4.82;;;1.65;;
76576;SDS011;65441;44.748;37.600;2024-01-15T10:08:21;6.40;;;1.90;;
76576;SDS011;65441;44.748;37.600;2024-01-15T10:10:51;4.65;;;1.70;;
76576;SDS011;65441;44.748;37.600;2024-01-15T10:13:19;8.40;;;1.90;;
76576;SDS011;65441;44.748;37.600;2024-01-15T10:15:48;5.20;;;1.50;;
76576;SDS011;65441;44.748;37.600;2024-01-15T10:18:16;7.43;;;1.95;;
76576;SDS011;65441;44.748;37.600;2024-01-15T10:20:45;5.47;;;1.48;;
76576;SDS011;65441;44.748;37.600;2024-01-15T10:23:14;7.18;;;1.90;;
76576;SDS011;65441;44.748;37.600;2024-01-15T10:25:44;6.82;;;1.27;;
76576;SDS011;65441;44.748;37.600;2024-01-15T10:28:13;4.20;;;1.23;;
76576;SDS011;65441;44.748;37.600;2024-01-15T10:30:41;3.08;;;1.27;;
76576;SDS011;65441;44.748;37.600;2024-01-15T10:33:09;5.47;;;1.40;;
76576;SDS011;65441;44.748;37.600;2024-01-15T10:35:38;8.13;;;1.38;;
76576;SDS011;65441;44.748;37.600;2024-01-15T10:38:06;5.18;;;1.33;;
76576;SDS011;65441;44.748;37.600;2024-01-15T10:40:35;3.22;;;1.20;;
76576;SDS011;65441;44.748;37.600;2024-01-15T10:43:05;4.57;;;1.30;;
76576;SDS011;65441;44.748;37.600;2024-01-15T10:45:33;7.07;;;1.13;;
76576;SDS011;65441;44.748;37.600;2024-01-15T10:48:02;5.13;;;0.95;;
76576;SDS011;65441;44.748;37.600;2024-01-15T10:50:30;3.67;;;1.25;;
76576;SDS011;65441;44.748;37.600;2024-01-15T10:53:00;6.47;;;1.48;;
76576;SDS011;65441;44.748;37.600;2024-01-15T10:55:29;6.95;;;1.55;;
76576;SDS011;65441;44.748;37.600;2024-01-15T10:57:58;5.05;;;2.05;;
76576;SDS011;65441;44.748;37.600;2024-01-15T11:00:28;3.28;;;1.20;;
76576;SDS011;65441;44.748;37.600;2024-01-15T11:02:57;4.95;;;1.30;;
76576;SDS011;65441;44.748;37.600;2024-01-15T11:05:28;4.55;;;1.50;;
76576;SDS011;65441;44.748;37.600;2024-01-15T11:07:56;5.55;;;1.85;;
76576;SDS011;65441;44.748;37.600;2024-01-15T11:10:39;5.13;;;1.38;;
76576;SDS011;65441;44.748;37.600;2024-01-15T11:13:09;4.85;;;1.55;;
76576;SDS011;65441;44.748;37.600;2024-01-15T11:15:58;5.40;;;1.17;;
76576;SDS011;65441;44.748;37.600;2024-01-15T11:18:28;7.18;;;1.85;;
76576;SDS011;65441;44.748;37.600;2024-01-15T11:21:21;6.10;;;1.45;;
76576;SDS011;65441;44.748;37.600;2024-01-15T11:23:51;5.05;;;1.33;;
76576;SDS011;65441;44.748;37.600;2024-01-15T11:26:32;8.77;;;1.83;;
76576;SDS011;65441;44.748;37.600;2024-01-15T11:29:03;3.97;;;1.17;;
76576;SDS011;65441;44.748;37.600;2024-01-15T11:37:24;5.93;;;1.90;;
76576;SDS011;65441;44.748;37.600;2024-01-15T11:39:53;4.88;;;1.63;;
76576;SDS011;65441;44.748;37.600;2024-01-15T11:42:22;3.78;;;1.27;;
76576;SDS011;65441;44.748;37.600;2024-01-15T11:44:51;4.60;;;1.45;;
76576;SDS011;65441;44.748;37.600;2024-01-15T11:47:33;4.07;;;1.25;;
76576;SDS011;65441;44.748;37.600;2024-01-15T11:50:22;3.47;;;1.02;;
76576;SDS011;65441;44.748;37.600;2024-01-15T11:52:55;5.28;;;1.27;;
76576;SDS011;65441;44.748;37.600;2024-01-15T11:55:29;6.03;;;1.73;;
76576;SDS011;65441;44.748;37.600;2024-01-15T11:58:01;5.53;;;1.40;;
76576;SDS011;65441;44.748;37.600;2024-01-15T12:00:33;5.45;;;1.67;;
76576;SDS011;65441;44.748;37.600;2024-01-15T12:03:04;3.70;;;1.25;;
76576;SDS011;65441;44.748;37.600;2024-01-15T12:05:32;2.72;;;0.85;;
76576;SDS011;65441;44.748;37.600;2024-01-15T12:08:01;4.28;;;1.42;;
76576;SDS011;65441;44.748;37.600;2024-01-15T12:10:29;6.10;;;1.55;;
76576;SDS011;65441;44.748;37.600;2024-01-15T12:12:58;7.25;;;1.05;;
76576;SDS011;65441;44.748;37.600;2024-01-15T12:15:28;3.15;;;1.08;;
76576;SDS011;65441;44.748;37.600;2024-01-15T12:17:57;3.10;;;0.73;;
76576;SDS011;65441;44.748;37.600;2024-01-15T12:20:46;4.70;;;1.05;;
76576;SDS011;65441;44.748;37.600;2024-01-15T12:23:14;4.80;;;1.20;;
76576;SDS011;65441;44.748;37.600;2024-01-15T12:25:43;5.95;;;1.08;;
76576;SDS011;65441;44.748;37.600;2024-01-15T12:28:29;4.78;;;1.55;;
76576;SDS011;65441;44.748;37.600;2024-01-15T12:30:58;2.53;;;0.82;;
76576;SDS011;65441;44.748;37.600;2024-01-15T12:33:31;6.35;;;1.40;;
76576;SDS011;65441;44.748;37.600;2024-01-15T12:36:02;5.78;;;1.50;;
76576;SDS011;65441;44.748;37.600;2024-01-15T12:38:32;3.78;;;1.35;;
76576;SDS011;65441;44.748;37.600;2024-01-15T12:41:00;5.10;;;2.03;;
76576;SDS011;65441;44.748;37.600;2024-01-15T12:43:28;4.85;;;1.55;;
76576;SDS011;65441;44.748;37.600;2024-01-15T12:45:57;4.95;;;1.23;;
76576;SDS011;65441;44.748;37.600;2024-01-15T12:48:25;5.30;;;1.55;;
76576;SDS011;65441;44.748;37.600;2024-01-15T12:50:53;3.75;;;0.95;;
76576;SDS011;65441;44.748;37.600;2024-01-15T12:53:24;3.13;;;0.80;;
76576;SDS011;65441;44.748;37.600;2024-01-15T12:55:52;4.45;;;1.05;;
76576;SDS011;65441;44.748;37.600;2024-01-15T12:58:20;9.30;;;1.58;;
76576;SDS011;65441;44.748;37.600;2024-01-15T13:00:48;4.25;;;1.50;;
76576;SDS011;65441;44.748;37.600;2024-01-15T13:03:17;5.85;;;1.63;;
76576;SDS011;65441;44.748;37.600;2024-01-15T13:05:45;2.92;;;1.02;;
76576;SDS011;65441;44.748;37.600;2024-01-15T13:08:15;3.28;;;0.90;;
76576;SDS011;65441;44.748;37.600;2024-01-15T13:13:31;5.20;;;1.35;;
76576;SDS011;65441;44.748;37.600;2024-01-15T13:16:00;4.25;;;0.90;;
76576;SDS011;65441;44.748;37.600;2024-01-15T13:18:32;3.95;;;1.40;;
76576;SDS011;65441;44.748;37.600;2024-01-15T13:21:18;6.55;;;1.67;;
76576;SDS011;65441;44.748;37.600;2024-01-15T13:23:47;4.45;;;1.25;;
76576;SDS011;65441;44.748;37.600;2024-01-15T13:26:16;2.40;;;0.82;;
76576;SDS011;65441;44.748;37.600;2024-01-15T13:28:46;6.43;;;2.25;;
76576;SDS011;65441;44.748;37.600;2024-01-15T13:31:15;2.72;;;0.55;;
76576;SDS011;65441;44.748;37.600;2024-01-15T13:33:43;2.45;;;0.90;;
76576;SDS011;65441;44.748;37.600;2024-01-15T13:36:11;5.05;;;1.30;;
76576;SDS011;65441;44.748;37.600;2024-01-15T13:38:40;4.63;;;1.30;;
76576;SDS011;65441;44.748;37.600;2024-01-15T13:41:08;3.92;;;1.13;;
76576;SDS011;65441;44.748;37.600;2024-01-15T13:43:38;8.25;;;1.27;;
76576;SDS011;65441;44.748;37.600;2024-01-15T13:46:06;5.78;;;1.33;;
76576;SDS011;65441;44.748;37.600;2024-01-15T13:48:34;3.85;;;1.15;;
76576;SDS011;65441;44.748;37.600;2024-01-15T13:51:02;6.30;;;1.92;;
76576;SDS011;65441;44.748;37.600;2024-01-15T13:53:31;5.47;;;1.55;;
76576;SDS011;65441;44.748;37.600;2024-01-15T13:55:59;5.57;;;1.40;;
76576;SDS011;65441;44.748;37.600;2024-01-15T13:58:28;4.10;;;1.38;;
76576;SDS011;65441;44.748;37.600;2024-01-15T14:00:57;3.45;;;1.08;;
76576;SDS011;65441;44.748;37.600;2024-01-15T14:03:26;23.63;;;2.25;;
76576;SDS011;65441;44.748;37.600;2024-01-15T14:05:54;8.80;;;1.70;;
76576;SDS011;65441;44.748;37.600;2024-01-15T14:08:22;8.50;;;1.73;;
76576;SDS011;65441;44.748;37.600;2024-01-15T14:10:51;4.82;;;1.58;;
76576;SDS011;65441;44.748;37.600;2024-01-15T14:13:20;4.18;;;1.63;;
76576;SDS011;65441;44.748;37.600;2024-01-15T14:15:48;4.93;;;1.52;;
76576;SDS011;65441;44.748;37.600;2024-01-15T14:18:18;3.08;;;1.08;;
76576;SDS011;65441;44.748;37.600;2024-01-15T14:20:46;2.10;;;0.63;;
76576;SDS011;65441;44.748;37.600;2024-01-15T14:23:32;1.73;;;0.75;;
76576;SDS011;65441;44.748;37.600;2024-01-15T14:26:01;4.85;;;1.20;;
76576;SDS011;65441;44.748;37.600;2024-01-15T14:28:30;3.33;;;1.08;;
76576;SDS011;65441;44.748;37.600;2024-01-15T14:31:17;3.58;;;1.40;;
76576;SDS011;65441;44.748;37.600;2024-01-15T14:33:47;5.47;;;1.38;;
76576;SDS011;65441;44.748;37.600;2024-01-15T14:36:16;2.83;;;0.95;;
76576;SDS011;65441;44.748;37.600;2024-01-15T14:38:44;3.92;;;1.20;;
76576;SDS011;65441;44.748;37.600;2024-01-15T14:41:13;3.65;;;1.58;;
76576;SDS011;65441;44.748;37.600;2024-01-15T14:43:43;5.15;;;1.20;;
76576;SDS011;65441;44.748;37.600;2024-01-15T14:46:12;6.38;;;2.03;;
76576;SDS011;65441;44.748;37.600;2024-01-15T14:48:40;7.68;;;1.50;;
76576;SDS011;65441;44.748;37.600;2024-01-15T14:53:57;3.85;;;1.40;;
76576;SDS011;65441;44.748;37.600;2024-01-15T14:56:25;4.38;;;1.08;;
76576;SDS011;65441;44.748;37.600;2024-01-15T14:58:53;5.30;;;1.23;;
76576;SDS011;65441;44.748;37.600;2024-01-15T15:01:22;3.65;;;1.10;;
76576;SDS011;65441;44.748;37.600;2024-01-15T15:09:07;5.70;;;1.77;;
76576;SDS011;65441;44.748;37.600;2024-01-15T15:11:38;6.03;;;1.92;;
76576;SDS011;65441;44.748;37.600;2024-01-15T15:14:07;4.70;;;1.55;;
76576;SDS011;65441;44.748;37.600;2024-01-15T15:16:35;6.78;;;1.92;;
76576;SDS011;65441;44.748;37.600;2024-01-15T15:19:04;4.40;;;1.27;;
76576;SDS011;65441;44.748;37.600;2024-01-15T15:21:32;4.90;;;1.77;;
76576;SDS011;65441;44.748;37.600;2024-01-15T15:24:03;6.80;;;1.95;;
76576;SDS011;65441;44.748;37.600;2024-01-15T15:26:31;3.83;;;1.48;;
76576;SDS011;65441;44.748;37.600;2024-01-15T15:28:59;4.60;;;1.17;;
76576;SDS011;65441;44.748;37.600;2024-01-15T15:31:28;6.60;;;1.63;;